sensor_id;sensor_type;location;lat;lon;timestamp;P1;durP1;ratioP1;P2;durP2;ratioP2
10651;SDS011;5374;42.742;23.266;2023-04-09T00:00:01;20.23;;;17.07;;
10651;SDS011;5374;42.742;23.266;2023-04-09T00:02:49;19.10;;;15.90;;
10651;SDS011;5374;42.742;23.266;2023-04-09T00:05:37;23.23;;;19.47;;
10651;SDS011;5374;42.742;23.266;2023-04-09T00:08:26;22.83;;;20.40;;
10651;SDS011;5374;42.742;23.266;2023-04-09T00:11:13;23.50;;;19.17;;
10651;SDS011;5374;42.742;23.266;2023-04-09T00:14:00;21.80;;;19.50;;
10651;SDS011;5374;42.742;23.266;2023-04-09T00:16:47;23.13;;;19.37;;
10651;SDS011;5374;42.742;23.266;2023-04-09T00:19:34;22.63;;;19.30;;
10651;SDS011;5374;42.742;23.266;2023-04-09T00:22:22;29.23;;;23.20;;
10651;SDS011;5374;42.742;23.266;2023-04-09T00:25:10;32.90;;;26.47;;
10651;SDS011;5374;42.742;23.266;2023-04-09T00:27:57;31.10;;;24.50;;
10651;SDS011;5374;42.742;23.266;2023-04-09T00:30:44;31.43;;;23.70;;
10651;SDS011;5374;42.742;23.266;2023-04-09T00:33:31;24.50;;;21.63;;
10651;SDS011;5374;42.742;23.266;2023-04-09T00:36:18;29.73;;;23.00;;
10651;SDS011;5374;42.742;23.266;2023-04-09T00:39:06;26.63;;;21.43;;
10651;SDS011;5374;42.742;23.266;2023-04-09T00:41:56;25.53;;;20.43;;
10651;SDS011;5374;42.742;23.266;2023-04-09T00:44:43;24.87;;;21.10;;
10651;SDS011;5374;42.742;23.266;2023-04-09T00:47:31;27.30;;;21.70;;
10651;SDS011;5374;42.742;23.266;2023-04-09T00:50:20;26.57;;;20.57;;
10651;SDS011;5374;42.742;23.266;2023-04-09T00:53:07;25.70;;;22.13;;
10651;SDS011;5374;42.742;23.266;2023-04-09T00:55:56;31.03;;;23.50;;
10651;SDS011;5374;42.742;23.266;2023-04-09T00:58:45;29.13;;;23.47;;
10651;SDS011;5374;42.742;23.266;2023-04-09T01:01:32;34.23;;;26.50;;
10651;SDS011;5374;42.742;23.266;2023-04-09T01:04:19;30.13;;;24.57;;
10651;SDS011;5374;42.742;23.266;2023-04-09T01:07:09;30.30;;;23.53;;
10651;SDS011;5374;42.742;23.266;2023-04-09T01:10:04;28.33;;;22.93;;
10651;SDS011;5374;42.742;23.266;2023-04-09T01:13:00;34.60;;;26.07;;
10651;SDS011;5374;42.742;23.266;2023-04-09T01:15:54;31.73;;;24.50;;
10651;SDS011;5374;42.742;23.266;2023-04-09T01:18:43;27.10;;;23.33;;
10651;SDS011;5374;42.742;23.266;2023-04-09T01:21:35;34.27;;;25.50;;
10651;SDS011;5374;42.742;23.266;2023-04-09T01:24:27;30.83;;;24.47;;
10651;SDS011;5374;42.742;23.266;2023-04-09T01:27:27;27.33;;;22.87;;
10651;SDS011;5374;42.742;23.266;2023-04-09T01:30:25;26.70;;;23.00;;
10651;SDS011;5374;42.742;23.266;2023-04-09T01:33:18;28.93;;;23.10;;
10651;SDS011;5374;42.742;23.266;2023-04-09T01:36:08;27.07;;;22.67;;
10651;SDS011;5374;42.742;23.266;2023-04-09T01:38:56;25.83;;;21.80;;
10651;SDS011;5374;42.742;23.266;2023-04-09T01:41:46;23.80;;;20.73;;
10651;SDS011;5374;42.742;23.266;2023-04-09T01:44:35;25.03;;;20.47;;
10651;SDS011;5374;42.742;23.266;2023-04-09T01:47:25;26.63;;;21.93;;
10651;SDS011;5374;42.742;23.266;2023-04-09T01:50:13;24.80;;;21.03;;
10651;SDS011;5374;42.742;23.266;2023-04-09T01:53:01;24.97;;;22.10;;
10651;SDS011;5374;42.742;23.266;2023-04-09T01:55:48;30.57;;;24.17;;
10651;SDS011;5374;42.742;23.266;2023-04-09T01:58:36;29.03;;;23.27;;
10651;SDS011;5374;42.742;23.266;2023-04-09T02:01:23;26.23;;;22.87;;
10651;SDS011;5374;42.742;23.266;2023-04-09T02:04:21;28.43;;;22.83;;
10651;SDS011;5374;42.742;23.266;2023-04-09T02:07:14;26.07;;;22.23;;
10651;SDS011;5374;42.742;23.266;2023-04-09T02:10:11;25.93;;;22.27;;
10651;SDS011;5374;42.742;23.266;2023-04-09T02:13:01;27.43;;;23.50;;
10651;SDS011;5374;42.742;23.266;2023-04-09T02:15:53;25.00;;;21.23;;
10651;SDS011;5374;42.742;23.266;2023-04-09T02:18:42;25.33;;;22.57;;
10651;SDS011;5374;42.742;23.266;2023-04-09T02:21:30;26.87;;;22.77;;
10651;SDS011;5374;42.742;23.266;2023-04-09T02:24:17;26.63;;;23.27;;
10651;SDS011;5374;42.742;23.266;2023-04-09T02:27:05;25.30;;;22.20;;
10651;SDS011;5374;42.742;23.266;2023-04-09T02:29:52;27.37;;;23.00;;
10651;SDS011;5374;42.742;23.266;2023-04-09T02:32:39;26.20;;;22.00;;
10651;SDS011;5374;42.742;23.266;2023-04-09T02:35:27;27.20;;;22.80;;
10651;SDS011;5374;42.742;23.266;2023-04-09T02:38:15;26.10;;;21.70;;
10651;SDS011;5374;42.742;23.266;2023-04-09T02:41:02;32.43;;;25.83;;
10651;SDS011;5374;42.742;23.266;2023-04-09T02:43:50;28.70;;;23.87;;
10651;SDS011;5374;42.742;23.266;2023-04-09T02:46:37;25.40;;;21.73;;
10651;SDS011;5374;42.742;23.266;2023-04-09T02:49:25;26.27;;;22.30;;
10651;SDS011;5374;42.742;23.266;2023-04-09T02:52:12;27.50;;;22.90;;
10651;SDS011;5374;42.742;23.266;2023-04-09T02:55:00;29.23;;;23.63;;
10651;SDS011;5374;42.742;23.266;2023-04-09T02:57:47;28.87;;;24.87;;
10651;SDS011;5374;42.742;23.266;2023-04-09T03:00:34;28.80;;;24.33;;
10651;SDS011;5374;42.742;23.266;2023-04-09T03:03:22;31.40;;;24.03;;
10651;SDS011;5374;42.742;23.266;2023-04-09T03:06:09;27.73;;;22.77;;
10651;SDS011;5374;42.742;23.266;2023-04-09T03:08:56;26.53;;;22.73;;
10651;SDS011;5374;42.742;23.266;2023-04-09T03:11:45;25.37;;;22.37;;
10651;SDS011;5374;42.742;23.266;2023-04-09T03:14:32;25.63;;;22.63;;
10651;SDS011;5374;42.742;23.266;2023-04-09T03:17:19;27.53;;;22.57;;
10651;SDS011;5374;42.742;23.266;2023-04-09T03:20:10;26.50;;;22.30;;
10651;SDS011;5374;42.742;23.266;2023-04-09T03:22:57;25.30;;;21.67;;
10651;SDS011;5374;42.742;23.266;2023-04-09T03:25:44;25.13;;;21.40;;
10651;SDS011;5374;42.742;23.266;2023-04-09T03:28:33;25.27;;;21.77;;
10651;SDS011;5374;42.742;23.266;2023-04-09T03:31:20;26.60;;;21.60;;
10651;SDS011;5374;42.742;23.266;2023-04-09T03:34:07;23.70;;;21.03;;
10651;SDS011;5374;42.742;23.266;2023-04-09T03:36:54;25.93;;;21.67;;
10651;SDS011;5374;42.742;23.266;2023-04-09T03:39:41;26.43;;;22.20;;
10651;SDS011;5374;42.742;23.266;2023-04-09T03:42:29;31.90;;;25.23;;
10651;SDS011;5374;42.742;23.266;2023-04-09T03:45:17;30.50;;;24.33;;
10651;SDS011;5374;42.742;23.266;2023-04-09T03:48:05;33.80;;;25.33;;
10651;SDS011;5374;42.742;23.266;2023-04-09T03:50:52;35.43;;;27.70;;
10651;SDS011;5374;42.742;23.266;2023-04-09T03:53:39;35.17;;;26.33;;
10651;SDS011;5374;42.742;23.266;2023-04-09T03:56:26;27.63;;;23.10;;
10651;SDS011;5374;42.742;23.266;2023-04-09T03:59:13;28.67;;;23.03;;
10651;SDS011;5374;42.742;23.266;2023-04-09T04:02:02;30.27;;;24.27;;
10651;SDS011;5374;42.742;23.266;2023-04-09T04:04:49;30.73;;;23.80;;
10651;SDS011;5374;42.742;23.266;2023-04-09T04:07:36;30.53;;;23.17;;
10651;SDS011;5374;42.742;23.266;2023-04-09T04:10:24;26.30;;;21.53;;
10651;SDS011;5374;42.742;23.266;2023-04-09T04:13:11;58.17;;;35.03;;
10651;SDS011;5374;42.742;23.266;2023-04-09T04:15:58;203.27;;;98.83;;
10651;SDS011;5374;42.742;23.266;2023-04-09T04:18:47;133.27;;;68.27;;
10651;SDS011;5374;42.742;23.266;2023-04-09T04:21:35;61.37;;;38.70;;
10651;SDS011;5374;42.742;23.266;2023-04-09T04:24:22;45.90;;;30.63;;
10651;SDS011;5374;42.742;23.266;2023-04-09T04:27:09;50.03;;;36.17;;
10651;SDS011;5374;42.742;23.266;2023-04-09T04:29:56;47.80;;;35.80;;
10651;SDS011;5374;42.742;23.266;2023-04-09T04:32:44;36.93;;;29.77;;
10651;SDS011;5374;42.742;23.266;2023-04-09T04:35:33;38.30;;;30.77;;
10651;SDS011;5374;42.742;23.266;2023-04-09T04:38:20;36.40;;;29.43;;
10651;SDS011;5374;42.742;23.266;2023-04-09T04:41:09;36.37;;;29.47;;
10651;SDS011;5374;42.742;23.266;2023-04-09T04:43:56;44.80;;;35.27;;
10651;SDS011;5374;42.742;23.266;2023-04-09T04:46:43;42.80;;;33.30;;
10651;SDS011;5374;42.742;23.266;2023-04-09T04:49:30;39.50;;;32.17;;
10651;SDS011;5374;42.742;23.266;2023-04-09T04:52:19;37.80;;;31.40;;
10651;SDS011;5374;42.742;23.266;2023-04-09T04:55:07;30.70;;;26.13;;
10651;SDS011;5374;42.742;23.266;2023-04-09T04:57:54;25.43;;;22.17;;
10651;SDS011;5374;42.742;23.266;2023-04-09T05:00:41;24.47;;;21.23;;
10651;SDS011;5374;42.742;23.266;2023-04-09T05:03:28;22.30;;;19.80;;
10651;SDS011;5374;42.742;23.266;2023-04-09T05:06:15;22.77;;;18.67;;
10651;SDS011;5374;42.742;23.266;2023-04-09T05:09:04;22.60;;;19.57;;
10651;SDS011;5374;42.742;23.266;2023-04-09T05:11:51;20.73;;;18.40;;
10651;SDS011;5374;42.742;23.266;2023-04-09T05:14:38;23.07;;;20.57;;
10651;SDS011;5374;42.742;23.266;2023-04-09T05:17:25;21.67;;;18.73;;
10651;SDS011;5374;42.742;23.266;2023-04-09T05:20:12;21.93;;;19.57;;
10651;SDS011;5374;42.742;23.266;2023-04-09T05:23:00;26.97;;;21.10;;
10651;SDS011;5374;42.742;23.266;2023-04-09T05:25:48;19.30;;;17.20;;
10651;SDS011;5374;42.742;23.266;2023-04-09T05:28:35;18.90;;;16.90;;
10651;SDS011;5374;42.742;23.266;2023-04-09T05:31:22;18.77;;;16.83;;
10651;SDS011;5374;42.742;23.266;2023-04-09T05:34:10;18.27;;;16.37;;
10651;SDS011;5374;42.742;23.266;2023-04-09T05:36:57;17.73;;;15.37;;
10651;SDS011;5374;42.742;23.266;2023-04-09T05:39:44;17.77;;;15.80;;
10651;SDS011;5374;42.742;23.266;2023-04-09T05:42:32;19.07;;;16.63;;
10651;SDS011;5374;42.742;23.266;2023-04-09T05:45:20;19.73;;;17.73;;
10651;SDS011;5374;42.742;23.266;2023-04-09T05:48:07;17.50;;;15.70;;
10651;SDS011;5374;42.742;23.266;2023-04-09T05:50:54;16.20;;;14.60;;
10651;SDS011;5374;42.742;23.266;2023-04-09T05:53:41;15.97;;;14.27;;
10651;SDS011;5374;42.742;23.266;2023-04-09T05:56:29;17.00;;;15.23;;
10651;SDS011;5374;42.742;23.266;2023-04-09T05:59:18;14.57;;;13.07;;
10651;SDS011;5374;42.742;23.266;2023-04-09T06:02:05;15.63;;;13.90;;
10651;SDS011;5374;42.742;23.266;2023-04-09T06:04:52;18.93;;;16.33;;
10651;SDS011;5374;42.742;23.266;2023-04-09T06:07:39;18.63;;;15.40;;
10651;SDS011;5374;42.742;23.266;2023-04-09T06:10:26;17.63;;;15.03;;
10651;SDS011;5374;42.742;23.266;2023-04-09T06:13:13;15.23;;;13.73;;
10651;SDS011;5374;42.742;23.266;2023-04-09T06:16:04;14.63;;;13.13;;
10651;SDS011;5374;42.742;23.266;2023-04-09T06:18:51;15.07;;;13.43;;
10651;SDS011;5374;42.742;23.266;2023-04-09T06:21:39;13.60;;;12.23;;
10651;SDS011;5374;42.742;23.266;2023-04-09T06:24:26;13.57;;;12.27;;
10651;SDS011;5374;42.742;23.266;2023-04-09T06:27:13;14.00;;;12.70;;
10651;SDS011;5374;42.742;23.266;2023-04-09T06:30:01;13.63;;;12.33;;
10651;SDS011;5374;42.742;23.266;2023-04-09T06:32:49;14.00;;;12.27;;
10651;SDS011;5374;42.742;23.266;2023-04-09T06:35:36;13.03;;;11.83;;
10651;SDS011;5374;42.742;23.266;2023-04-09T06:38:23;11.40;;;10.27;;
10651;SDS011;5374;42.742;23.266;2023-04-09T06:41:11;14.10;;;12.40;;
10651;SDS011;5374;42.742;23.266;2023-04-09T06:43:59;13.50;;;12.20;;
10651;SDS011;5374;42.742;23.266;2023-04-09T06:46:46;11.80;;;10.60;;
10651;SDS011;5374;42.742;23.266;2023-04-09T06:49:34;13.93;;;12.23;;
10651;SDS011;5374;42.742;23.266;2023-04-09T06:52:22;12.33;;;11.13;;
10651;SDS011;5374;42.742;23.266;2023-04-09T06:55:09;11.60;;;10.50;;
10651;SDS011;5374;42.742;23.266;2023-04-09T06:57:57;13.17;;;11.70;;
10651;SDS011;5374;42.742;23.266;2023-04-09T07:00:44;12.53;;;11.30;;
10651;SDS011;5374;42.742;23.266;2023-04-09T07:03:31;14.02;;;12.73;;
10651;SDS011;5374;42.742;23.266;2023-04-09T07:06:19;11.50;;;10.40;;
10651;SDS011;5374;42.742;23.266;2023-04-09T07:09:06;11.17;;;10.07;;
10651;SDS011;5374;42.742;23.266;2023-04-09T07:11:54;12.97;;;11.67;;
10651;SDS011;5374;42.742;23.266;2023-04-09T07:14:41;15.87;;;11.77;;
10651;SDS011;5374;42.742;23.266;2023-04-09T07:17:29;16.30;;;11.53;;
10651;SDS011;5374;42.742;23.266;2023-04-09T07:20:16;12.77;;;11.57;;
10651;SDS011;5374;42.742;23.266;2023-04-09T07:23:04;12.77;;;11.57;;
10651;SDS011;5374;42.742;23.266;2023-04-09T07:25:52;12.57;;;11.33;;
10651;SDS011;5374;42.742;23.266;2023-04-09T07:28:39;12.63;;;11.33;;
10651;SDS011;5374;42.742;23.266;2023-04-09T07:31:26;13.47;;;12.07;;
10651;SDS011;5374;42.742;23.266;2023-04-09T07:34:13;12.33;;;11.13;;
10651;SDS011;5374;42.742;23.266;2023-04-09T07:37:01;13.80;;;12.03;;
10651;SDS011;5374;42.742;23.266;2023-04-09T07:39:49;13.37;;;12.07;;
10651;SDS011;5374;42.742;23.266;2023-04-09T07:42:37;12.27;;;10.97;;
10651;SDS011;5374;42.742;23.266;2023-04-09T07:45:25;12.23;;;10.80;;
10651;SDS011;5374;42.742;23.266;2023-04-09T07:48:12;13.10;;;10.93;;
10651;SDS011;5374;42.742;23.266;2023-04-09T07:50:59;14.27;;;11.70;;
10651;SDS011;5374;42.742;23.266;2023-04-09T07:53:46;11.50;;;10.40;;
10651;SDS011;5374;42.742;23.266;2023-04-09T07:56:34;11.60;;;10.47;;
10651;SDS011;5374;42.742;23.266;2023-04-09T07:59:22;10.90;;;9.80;;
10651;SDS011;5374;42.742;23.266;2023-04-09T08:02:09;15.83;;;13.50;;
10651;SDS011;5374;42.742;23.266;2023-04-09T08:04:57;12.03;;;10.83;;
10651;SDS011;5374;42.742;23.266;2023-04-09T08:07:44;11.90;;;10.07;;
10651;SDS011;5374;42.742;23.266;2023-04-09T08:10:31;11.80;;;10.43;;
10651;SDS011;5374;42.742;23.266;2023-04-09T08:13:19;12.23;;;10.20;;
10651;SDS011;5374;42.742;23.266;2023-04-09T08:16:09;10.70;;;9.60;;
10651;SDS011;5374;42.742;23.266;2023-04-09T08:18:56;12.90;;;11.60;;
10651;SDS011;5374;42.742;23.266;2023-04-09T08:21:44;11.70;;;10.50;;
10651;SDS011;5374;42.742;23.266;2023-04-09T08:24:33;12.57;;;9.90;;
10651;SDS011;5374;42.742;23.266;2023-04-09T08:27:20;11.40;;;10.20;;
10651;SDS011;5374;42.742;23.266;2023-04-09T08:30:09;13.37;;;10.47;;
10651;SDS011;5374;42.742;23.266;2023-04-09T08:32:57;13.00;;;10.70;;
10651;SDS011;5374;42.742;23.266;2023-04-09T08:35:44;11.87;;;10.53;;
10651;SDS011;5374;42.742;23.266;2023-04-09T08:38:31;12.10;;;10.90;;
10651;SDS011;5374;42.742;23.266;2023-04-09T08:41:19;13.87;;;10.73;;
10651;SDS011;5374;42.742;23.266;2023-04-09T08:44:07;11.77;;;10.57;;
10651;SDS011;5374;42.742;23.266;2023-04-09T08:46:56;11.97;;;10.00;;
10651;SDS011;5374;42.742;23.266;2023-04-09T08:49:45;16.03;;;12.93;;
10651;SDS011;5374;42.742;23.266;2023-04-09T08:52:34;12.23;;;10.93;;
10651;SDS011;5374;42.742;23.266;2023-04-09T08:55:23;13.37;;;10.63;;
10651;SDS011;5374;42.742;23.266;2023-04-09T08:58:10;12.00;;;10.63;;
10651;SDS011;5374;42.742;23.266;2023-04-09T09:00:57;16.33;;;11.20;;
10651;SDS011;5374;42.742;23.266;2023-04-09T09:03:52;16.93;;;12.53;;
10651;SDS011;5374;42.742;23.266;2023-04-09T09:06:43;13.73;;;11.53;;
10651;SDS011;5374;42.742;23.266;2023-04-09T09:09:31;20.77;;;14.23;;
10651;SDS011;5374;42.742;23.266;2023-04-09T09:12:34;10.87;;;9.87;;
10651;SDS011;5374;42.742;23.266;2023-04-09T09:15:26;13.10;;;10.07;;
10651;SDS011;5374;42.742;23.266;2023-04-09T09:18:16;12.30;;;10.77;;
10651;SDS011;5374;42.742;23.266;2023-04-09T09:21:12;11.67;;;10.47;;
10651;SDS011;5374;42.742;23.266;2023-04-09T09:24:01;11.77;;;9.77;;
10651;SDS011;5374;42.742;23.266;2023-04-09T09:27:01;11.50;;;9.83;;
10651;SDS011;5374;42.742;23.266;2023-04-09T09:29:48;10.17;;;9.27;;
10651;SDS011;5374;42.742;23.266;2023-04-09T09:32:35;11.50;;;10.30;;
10651;SDS011;5374;42.742;23.266;2023-04-09T09:35:23;11.43;;;10.03;;
10651;SDS011;5374;42.742;23.266;2023-04-09T09:38:12;11.60;;;10.40;;
10651;SDS011;5374;42.742;23.266;2023-04-09T09:41:06;11.03;;;9.93;;
10651;SDS011;5374;42.742;23.266;2023-04-09T09:44:02;11.77;;;10.30;;
10651;SDS011;5374;42.742;23.266;2023-04-09T09:46:51;12.13;;;10.30;;
10651;SDS011;5374;42.742;23.266;2023-04-09T09:49:39;10.93;;;9.83;;
10651;SDS011;5374;42.742;23.266;2023-04-09T09:52:26;11.90;;;10.70;;
10651;SDS011;5374;42.742;23.266;2023-04-09T09:55:16;12.67;;;9.97;;
10651;SDS011;5374;42.742;23.266;2023-04-09T09:58:05;10.17;;;9.17;;
10651;SDS011;5374;42.742;23.266;2023-04-09T10:00:57;11.57;;;10.47;;
10651;SDS011;5374;42.742;23.266;2023-04-09T10:03:45;10.20;;;9.20;;
10651;SDS011;5374;42.742;23.266;2023-04-09T10:06:35;11.73;;;10.53;;
10651;SDS011;5374;42.742;23.266;2023-04-09T10:09:23;11.30;;;10.10;;
10651;SDS011;5374;42.742;23.266;2023-04-09T10:12:14;11.17;;;10.03;;
10651;SDS011;5374;42.742;23.266;2023-04-09T10:15:03;13.10;;;10.90;;
10651;SDS011;5374;42.742;23.266;2023-04-09T10:17:51;11.80;;;10.23;;
10651;SDS011;5374;42.742;23.266;2023-04-09T10:20:39;12.17;;;10.43;;
10651;SDS011;5374;42.742;23.266;2023-04-09T10:23:35;12.33;;;11.03;;
10651;SDS011;5374;42.742;23.266;2023-04-09T10:26:25;10.90;;;9.77;;
10651;SDS011;5374;42.742;23.266;2023-04-09T10:29:16;10.30;;;9.23;;
10651;SDS011;5374;42.742;23.266;2023-04-09T10:32:12;14.60;;;9.53;;
10651;SDS011;5374;42.742;23.266;2023-04-09T10:35:06;9.30;;;8.40;;
10651;SDS011;5374;42.742;23.266;2023-04-09T10:37:55;10.90;;;7.90;;
10651;SDS011;5374;42.742;23.266;2023-04-09T10:40:46;9.20;;;8.40;;
10651;SDS011;5374;42.742;23.266;2023-04-09T10:43:35;11.33;;;8.60;;
10651;SDS011;5374;42.742;23.266;2023-04-09T10:46:28;9.33;;;8.43;;
10651;SDS011;5374;42.742;23.266;2023-04-09T10:49:16;11.93;;;10.13;;
10651;SDS011;5374;42.742;23.266;2023-04-09T10:52:05;10.80;;;9.70;;
10651;SDS011;5374;42.742;23.266;2023-04-09T10:54:55;10.80;;;8.37;;
10651;SDS011;5374;42.742;23.266;2023-04-09T10:57:42;10.07;;;8.53;;
10651;SDS011;5374;42.742;23.266;2023-04-09T11:00:29;11.13;;;7.83;;
10651;SDS011;5374;42.742;23.266;2023-04-09T11:03:21;10.50;;;9.40;;
10651;SDS011;5374;42.742;23.266;2023-04-09T11:06:12;13.30;;;9.43;;
10651;SDS011;5374;42.742;23.266;2023-04-09T11:09:02;10.90;;;9.30;;
10651;SDS011;5374;42.742;23.266;2023-04-09T11:11:51;9.67;;;8.77;;
10651;SDS011;5374;42.742;23.266;2023-04-09T11:14:38;10.70;;;9.60;;
10651;SDS011;5374;42.742;23.266;2023-04-09T11:17:26;9.73;;;8.57;;
10651;SDS011;5374;42.742;23.266;2023-04-09T11:20:15;9.90;;;8.90;;
10651;SDS011;5374;42.742;23.266;2023-04-09T11:23:05;9.30;;;8.37;;
10651;SDS011;5374;42.742;23.266;2023-04-09T11:25:52;10.07;;;7.70;;
10651;SDS011;5374;42.742;23.266;2023-04-09T11:28:41;10.77;;;9.53;;
10651;SDS011;5374;42.742;23.266;2023-04-09T11:31:28;11.67;;;10.57;;
10651;SDS011;5374;42.742;23.266;2023-04-09T11:34:16;8.43;;;7.60;;
10651;SDS011;5374;42.742;23.266;2023-04-09T11:37:05;7.73;;;7.03;;
10651;SDS011;5374;42.742;23.266;2023-04-09T11:39:53;10.43;;;8.33;;
10651;SDS011;5374;42.742;23.266;2023-04-09T11:42:42;8.87;;;7.93;;
10651;SDS011;5374;42.742;23.266;2023-04-09T11:45:30;9.93;;;7.37;;
10651;SDS011;5374;42.742;23.266;2023-04-09T11:48:18;7.50;;;6.80;;
10651;SDS011;5374;42.742;23.266;2023-04-09T11:51:06;7.03;;;6.33;;
10651;SDS011;5374;42.742;23.266;2023-04-09T11:53:54;8.67;;;7.17;;
10651;SDS011;5374;42.742;23.266;2023-04-09T11:56:42;9.17;;;7.83;;
10651;SDS011;5374;42.742;23.266;2023-04-09T11:59:29;11.67;;;9.87;;
10651;SDS011;5374;42.742;23.266;2023-04-09T12:02:17;9.43;;;8.37;;
10651;SDS011;5374;42.742;23.266;2023-04-09T12:05:06;10.20;;;9.10;;
10651;SDS011;5374;42.742;23.266;2023-04-09T12:07:56;7.37;;;6.67;;
10651;SDS011;5374;42.742;23.266;2023-04-09T12:10:45;7.67;;;6.97;;
10651;SDS011;5374;42.742;23.266;2023-04-09T12:13:32;9.37;;;7.33;;
10651;SDS011;5374;42.742;23.266;2023-04-09T12:16:20;7.53;;;6.83;;
10651;SDS011;5374;42.742;23.266;2023-04-09T12:19:07;10.77;;;9.40;;
10651;SDS011;5374;42.742;23.266;2023-04-09T12:21:56;18.40;;;13.70;;
10651;SDS011;5374;42.742;23.266;2023-04-09T12:24:43;14.33;;;10.93;;
10651;SDS011;5374;42.742;23.266;2023-04-09T12:27:32;18.40;;;13.73;;
10651;SDS011;5374;42.742;23.266;2023-04-09T12:30:19;16.00;;;11.30;;
10651;SDS011;5374;42.742;23.266;2023-04-09T12:33:06;12.90;;;10.73;;
10651;SDS011;5374;42.742;23.266;2023-04-09T12:35:54;15.70;;;10.10;;
10651;SDS011;5374;42.742;23.266;2023-04-09T12:38:42;12.37;;;10.73;;
10651;SDS011;5374;42.742;23.266;2023-04-09T12:41:29;10.73;;;8.70;;
10651;SDS011;5374;42.742;23.266;2023-04-09T12:44:18;15.20;;;10.37;;
10651;SDS011;5374;42.742;23.266;2023-04-09T12:47:05;11.40;;;10.20;;
10651;SDS011;5374;42.742;23.266;2023-04-09T12:49:53;32.77;;;11.17;;
10651;SDS011;5374;42.742;23.266;2023-04-09T12:52:40;11.70;;;9.83;;
10651;SDS011;5374;42.742;23.266;2023-04-09T12:55:28;10.30;;;8.70;;
10651;SDS011;5374;42.742;23.266;2023-04-09T12:58:15;33.03;;;23.13;;
10651;SDS011;5374;42.742;23.266;2023-04-09T13:01:04;18.00;;;15.13;;
10651;SDS011;5374;42.742;23.266;2023-04-09T13:03:51;11.97;;;10.70;;
10651;SDS011;5374;42.742;23.266;2023-04-09T13:06:38;11.23;;;9.97;;
10651;SDS011;5374;42.742;23.266;2023-04-09T13:09:26;10.40;;;9.30;;
10651;SDS011;5374;42.742;23.266;2023-04-09T13:12:13;11.33;;;10.23;;
10651;SDS011;5374;42.742;23.266;2023-04-09T13:15:01;13.00;;;11.60;;
10651;SDS011;5374;42.742;23.266;2023-04-09T13:17:49;11.10;;;9.90;;
10651;SDS011;5374;42.742;23.266;2023-04-09T13:20:36;21.00;;;12.00;;
10651;SDS011;5374;42.742;23.266;2023-04-09T13:23:24;28.70;;;16.47;;
10651;SDS011;5374;42.742;23.266;2023-04-09T13:26:11;15.20;;;11.67;;
10651;SDS011;5374;42.742;23.266;2023-04-09T13:28:58;18.90;;;11.57;;
10651;SDS011;5374;42.742;23.266;2023-04-09T13:31:46;14.70;;;12.03;;
10651;SDS011;5374;42.742;23.266;2023-04-09T13:34:34;44.23;;;34.67;;
10651;SDS011;5374;42.742;23.266;2023-04-09T13:37:22;28.30;;;23.30;;
10651;SDS011;5374;42.742;23.266;2023-04-09T13:40:09;20.03;;;17.47;;
10651;SDS011;5374;42.742;23.266;2023-04-09T13:42:57;17.63;;;15.73;;
10651;SDS011;5374;42.742;23.266;2023-04-09T13:45:44;57.57;;;48.80;;
10651;SDS011;5374;42.742;23.266;2023-04-09T13:48:34;73.00;;;57.13;;
10651;SDS011;5374;42.742;23.266;2023-04-09T13:51:22;44.50;;;34.53;;
10651;SDS011;5374;42.742;23.266;2023-04-09T13:54:11;47.37;;;38.77;;
10651;SDS011;5374;42.742;23.266;2023-04-09T13:56:58;16.67;;;14.97;;
10651;SDS011;5374;42.742;23.266;2023-04-09T13:59:46;14.13;;;12.70;;
10651;SDS011;5374;42.742;23.266;2023-04-09T14:02:34;12.93;;;11.47;;
10651;SDS011;5374;42.742;23.266;2023-04-09T14:05:21;14.50;;;12.47;;
10651;SDS011;5374;42.742;23.266;2023-04-09T14:08:09;15.17;;;13.53;;
10651;SDS011;5374;42.742;23.266;2023-04-09T14:10:57;17.57;;;15.63;;
10651;SDS011;5374;42.742;23.266;2023-04-09T14:13:44;17.07;;;15.33;;
10651;SDS011;5374;42.742;23.266;2023-04-09T14:16:31;17.77;;;15.90;;
10651;SDS011;5374;42.742;23.266;2023-04-09T14:19:18;17.33;;;15.53;;
10651;SDS011;5374;42.742;23.266;2023-04-09T14:22:05;16.60;;;14.90;;
10651;SDS011;5374;42.742;23.266;2023-04-09T14:24:54;18.27;;;16.37;;
10651;SDS011;5374;42.742;23.266;2023-04-09T14:27:41;19.13;;;17.13;;
10651;SDS011;5374;42.742;23.266;2023-04-09T14:30:29;19.73;;;17.20;;
10651;SDS011;5374;42.742;23.266;2023-04-09T14:33:16;19.00;;;16.17;;
10651;SDS011;5374;42.742;23.266;2023-04-09T14:36:03;18.20;;;16.30;;
10651;SDS011;5374;42.742;23.266;2023-04-09T14:38:51;16.83;;;15.23;;
10651;SDS011;5374;42.742;23.266;2023-04-09T14:41:39;16.37;;;14.77;;
10651;SDS011;5374;42.742;23.266;2023-04-09T14:44:26;16.90;;;15.20;;
10651;SDS011;5374;42.742;23.266;2023-04-09T14:47:13;15.07;;;13.57;;
10651;SDS011;5374;42.742;23.266;2023-04-09T14:50:01;15.80;;;14.10;;
10651;SDS011;5374;42.742;23.266;2023-04-09T14:52:48;21.53;;;19.10;;
10651;SDS011;5374;42.742;23.266;2023-04-09T14:55:35;23.63;;;20.13;;
10651;SDS011;5374;42.742;23.266;2023-04-09T14:58:24;15.50;;;13.90;;
10651;SDS011;5374;42.742;23.266;2023-04-09T15:01:12;14.23;;;12.40;;
10651;SDS011;5374;42.742;23.266;2023-04-09T15:03:59;14.23;;;12.73;;
10651;SDS011;5374;42.742;23.266;2023-04-09T15:06:46;16.43;;;14.73;;
10651;SDS011;5374;42.742;23.266;2023-04-09T15:09:33;20.07;;;15.67;;
10651;SDS011;5374;42.742;23.266;2023-04-09T15:12:21;17.07;;;15.27;;
10651;SDS011;5374;42.742;23.266;2023-04-09T15:15:10;14.80;;;13.40;;
10651;SDS011;5374;42.742;23.266;2023-04-09T15:17:58;14.23;;;12.73;;
10651;SDS011;5374;42.742;23.266;2023-04-09T15:20:49;15.87;;;14.20;;
10651;SDS011;5374;42.742;23.266;2023-04-09T15:23:37;17.20;;;15.40;;
10651;SDS011;5374;42.742;23.266;2023-04-09T15:26:24;17.53;;;15.53;;
10651;SDS011;5374;42.742;23.266;2023-04-09T15:29:11;16.83;;;15.03;;
10651;SDS011;5374;42.742;23.266;2023-04-09T15:32:01;20.67;;;16.30;;
10651;SDS011;5374;42.742;23.266;2023-04-09T15:34:49;18.37;;;16.47;;
10651;SDS011;5374;42.742;23.266;2023-04-09T15:37:39;18.53;;;16.03;;
10651;SDS011;5374;42.742;23.266;2023-04-09T15:40:26;19.67;;;17.40;;
10651;SDS011;5374;42.742;23.266;2023-04-09T15:43:15;20.30;;;18.20;;
10651;SDS011;5374;42.742;23.266;2023-04-09T15:46:06;15.53;;;13.93;;
10651;SDS011;5374;42.742;23.266;2023-04-09T15:48:55;20.47;;;18.47;;
10651;SDS011;5374;42.742;23.266;2023-04-09T15:51:46;24.17;;;18.27;;
10651;SDS011;5374;42.742;23.266;2023-04-09T15:54:33;17.63;;;15.63;;
10651;SDS011;5374;42.742;23.266;2023-04-09T15:57:20;18.40;;;15.80;;
10651;SDS011;5374;42.742;23.266;2023-04-09T16:00:08;15.37;;;13.77;;
10651;SDS011;5374;42.742;23.266;2023-04-09T16:02:55;21.90;;;18.70;;
10651;SDS011;5374;42.742;23.266;2023-04-09T16:05:47;21.37;;;17.73;;
10651;SDS011;5374;42.742;23.266;2023-04-09T16:08:34;22.63;;;19.87;;
10651;SDS011;5374;42.742;23.266;2023-04-09T16:11:22;31.03;;;23.37;;
10651;SDS011;5374;42.742;23.266;2023-04-09T16:14:09;19.10;;;17.00;;
10651;SDS011;5374;42.742;23.266;2023-04-09T16:16:59;18.23;;;16.43;;
10651;SDS011;5374;42.742;23.266;2023-04-09T16:19:46;18.50;;;16.20;;
10651;SDS011;5374;42.742;23.266;2023-04-09T16:22:35;18.73;;;16.37;;
10651;SDS011;5374;42.742;23.266;2023-04-09T16:25:22;18.63;;;16.43;;